Court-Saint-Etienne, Belgium
Current Conditions -  °F | °C
As of 2:25 PM on Monday 22 Dec 2014 (Local Time) from EBBE Reporting Station
Drizzle Drizzle  
Wind Chill: 10°   Ceiling: 1000
Heat Index: 10°   Visibility: 6mi
Dew Point:   Wind: 23mph
Humidity: 87%   Direction: 240°WSW
Pressure: 30.12"   Gusts: NA
Location:  50.63°N, 4.57°E
Report Text: EBBE 221325Z 24020KT 9999 -DZ SCT008 OVC010 10/08 Q1020 GRN GRN TEMPO YLO
Loading
Personal Weather Stations






























Interactive Weather Map New forecast layout! Learn more

10-Day Weather Forecast

Advertisements
Track Severe Weather on mobile